Hualapai Flat, Nevada Weather observations

Data are for 10 minute period ending at time listed.
 Day   Time   Solar   Ave.   Ave.  Ave.  Vector  Max.   Baro.   Total    
  of    of     Rad.   Air    Rel.  Wind   Wind   Wind  Press.  Precip.   
Year   Day            Temp.  Hum.  Speed  Dir.   Gust                    
2015   (PST)  Kw/m2    F      %     mph   deg.    mph    mb.     in.     
-------------------------------------------------------------------------
 244   10:30   0.26   78.8    26    4.2   108     9.8   873.5    0.00 
 244   10:40   0.65   78.3    28    4.4   105     9.2   873.4    0.00 
 244   10:50   0.65   78.9    21    4.3    51     9.1   873.2    0.00 
 244   11:00   0.24   80.2    24    3.9    87     8.8   873.0    0.00 
 244   11:10   0.64   82.6    28    2.8   180     5.9   872.9    0.00 
 244   11:20   0.64   83.0    24    1.8   118     4.7   872.7    0.00 
 244   11:30   0.80   82.1    27    2.4   155     5.2   872.6    0.00 
 244   11:40   0.84   84.6    26    3.0   205     6.1   872.6    0.00 
 244   11:50   0.85   82.5    22    9.2   275    17.8   872.5    0.00 
 244   12:00   0.84   82.4    23    5.4   265    10.5   872.4    0.00 
 244   12:10   0.84   83.7    19    7.7   329    14.4   872.1    0.00 
 244   12:20   0.84   84.1    26    9.2   163    15.1   872.1    0.00 
 244   12:30   0.84   84.4    26    5.3   160     8.6   872.2    0.00 
 244   12:40   0.82   84.0    22    5.2   262    16.4   872.0    0.00 
 244   12:50   0.72   85.5    26    4.4   212    10.4   871.9    0.00 
 244   13:00   0.77   85.9    26    7.0   188    12.5   871.8    0.00 
 244   13:10   0.80   85.5    23    7.0   214    28.9   871.8    0.00 
 244   13:20   0.79   83.7    20   11.2   259    23.2   871.6    0.00 
 244   13:30   0.78   82.7    24    8.3   216    17.9   871.5    0.00 
 244   13:40   0.77   85.4    28    5.9   189     9.7   871.5    0.00 
 244   13:50   0.76   86.6    27    6.0   182    15.8   871.4    0.00 
 244   14:00   0.74   85.0    26    7.6   173    13.2   871.2    0.00 
 244   14:10   0.59   84.1    24   11.6   200    19.3   871.1    0.00 
 244   14:20   0.57   82.6    24    6.3   152    20.4   871.1    0.00 
 244   14:30   0.46   81.9    25    9.2   228    15.1   870.9    0.00 
 244   14:40   0.50   82.5    29    4.2   174     8.2   870.8    0.00 
 244   14:50   0.47   82.8    23    5.3   134    14.0   870.7    0.00 
 244   15:00   0.53   83.8    26    7.6   178    13.2   870.6    0.00 
 244   15:10   0.64   84.7    26    5.0   190    10.5   870.5    0.00 
 244   15:20   0.56   85.4    28    8.6   187    12.3   870.5    0.00 
 244   15:30   0.50   84.7    20    5.3   210    10.7   870.4    0.00 
 244   15:40   0.27   83.8    25    7.7   207    14.0   870.2    0.00 
 244   15:50   0.25   82.7    23    7.4   208    17.0   870.2    0.00 
 244   16:00   0.31   83.7    23    5.4   197    13.1   870.2    0.00 
 244   16:10   0.36   82.9    28    8.1   194    14.7   870.2    0.00 
 244   16:20   0.34   82.0    28    5.0   189    11.0   870.1    0.00 
 244   16:30   0.31   82.5    31    6.2   171    11.0   870.1    0.00 
 244   16:40   0.28   81.9    27    7.3   202    12.9   869.9    0.00 
 244   16:50   0.25   81.5    28    7.6   197    15.7   869.9    0.00 
 244   17:00   0.21   80.4    22   12.7   220    20.2   869.9    0.00 
 244   17:10   0.19   80.4    19   10.3   226    16.0   870.0    0.00 
 244   17:20   0.16   81.0    19   10.1   228    17.8   869.9    0.00 
 244   17:30   0.12   80.4    18   10.1   245    19.7   869.9    0.00 
 244   17:40   0.10   80.7    18    9.9   237    20.4   869.9    0.00 
 244   17:50   0.08   80.5    17   11.6   252    18.6   869.8    0.00 
 244   18:00   0.06   80.6    17   12.6   244    20.0   869.8    0.00 
 244   18:10   0.04   80.3    16   12.7   244    21.5   869.8    0.00 
 244   18:20   0.01   79.8    17   11.0   244    20.5   870.0    0.00 
 244   18:30   0.01   78.2    18    9.4   238    15.5   870.1    0.00 
 244   18:40   0.00   77.3    19    8.6   235    16.7   870.3    0.00 
 244   18:50   0.00   76.3    20    7.1   238    10.4   870.5    0.00 
 244   19:00   0.00   75.6    20    5.6   254     8.6   870.7    0.00 
 244   19:10   0.00   75.4    20    6.5   256    10.0   870.9    0.00 
 244   19:20   0.00   75.5    20    9.1   284    14.6   871.2    0.00 
 244   19:30   0.00   77.1    22    9.0   295    14.3   871.4    0.00 
 244   19:40   0.00   77.1    22   11.4   294    18.7   871.5    0.00 
 244   19:50   0.00   77.3    22   13.4   292    20.0   871.6    0.00 
 244   20:00   0.00   76.8    22   15.8   283    24.3   871.6    0.00 
 244   20:10   0.00   76.7    22   16.3   275    24.1   871.5    0.00 
 244   20:20   0.00   75.8    23   17.9   274    24.8   871.6    0.00 
 244   20:30   0.00   75.5    23   16.4   274    23.0   871.7    0.00 
 244   20:40   0.00   74.0    24   12.6   274    17.5   872.0    0.00 
 244   20:50   0.00   73.3    25   10.4   283    14.3   872.2    0.00 
 244   21:00   0.00   72.9    25    9.6   287    13.2   872.4    0.00 
 244   21:10   0.00   72.2    26   10.0   282    16.4   872.5    0.00 
 244   21:20   0.00   72.4    26   13.8   280    19.1   872.4    0.00 
 244   21:30   0.00   72.4    26   15.5   275    21.9   872.3    0.00 
 244   21:40   0.00   72.1    26   15.2   273    20.2   872.2    0.00 
 244   21:50   0.00   71.3    27    9.4   232    18.7   872.6    0.00 
 244   22:00   0.00   69.8    29    3.1   145     6.4   872.7    0.00 
 244   22:10   0.00   69.0    30    3.1   201     6.7   872.8    0.00 
 244   22:20   0.00   67.9    31    4.3    93     7.7   872.9    0.00 
 244   22:30   0.00   66.5    32    1.5   229     5.7   872.8    0.00 
 244   22:40   0.00   68.2    30    1.7   348     3.9   872.9    0.00 
 244   22:50   0.00   67.9    27    4.3   276    10.6   873.0    0.00 
 244   23:00   0.00   67.1    28    6.2   265     9.8   873.0    0.00 
 244   23:10   0.00   66.8    29    7.2   259    10.1   873.0    0.00 
 244   23:20   0.00   66.1    30    7.3   259     9.9   873.0    0.00 
 244   23:30   0.00   66.4    29    9.1   258    13.4   872.9    0.00 
 244   23:40   0.00   66.0    30    7.7   240    10.7   872.9    0.00 
 244   23:50   0.00   65.4    32    4.6   244     7.5   872.9    0.00 
 245    0:00   0.00   66.1    32    2.2   268     6.1   872.9    0.00 
 245    0:10   0.00   66.6    31    4.1    56     7.9   873.0    0.00 
 245    0:20   0.00   67.9    30    5.2    28    10.4   873.0    0.00 
 245    0:30   0.00   68.1    31    5.3   334     9.8   873.0    0.00 
 245    0:40   0.00   68.2    31    6.5   314    10.1   873.0    0.00 
 245    0:50   0.00   70.6    29    7.0   288    20.2   872.9    0.00 
 245    1:00   0.00   69.8    30    5.8   252    11.1   873.0    0.00 
 245    1:10   0.00   68.3    31    3.6   339     8.0   873.1    0.00 
 245    1:20   0.00   69.6    29    3.5    55     7.7   873.0    0.00 
 245    1:30   0.00   69.4    30    4.5   270    11.8   873.0    0.00 
 245    1:40   0.00   69.5    29    5.6   340    14.0   873.0    0.00 
 245    1:50   0.00   69.6    29    6.7   337    14.2   873.1    0.00 
 245    2:00   0.00   67.6    30    6.1   107    10.8   873.1    0.00 
 245    2:10   0.00   69.7    31   12.4   240    23.7   873.1    0.00 
 245    2:20   0.00   71.2    28   10.2   218    30.2   872.9    0.00 
 245    2:30   0.00   70.2    28    8.8   279    15.3   872.9    0.00 
 245    2:40   0.00   67.3    30    4.6    66    10.7   873.1    0.00 
 245    2:50   0.00   66.7    30    3.6    43     7.2   873.1    0.00 
 245    3:00   0.00   65.7    30    4.8    52    11.1   873.1    0.00 
 245    3:10   0.00   63.6    31    6.1    12    12.6   873.1    0.00 
 245    3:20   0.00   64.5    30   10.6    78    16.7   873.0    0.00 
 245    3:30   0.00   63.2    30    5.9    83     9.4   873.0    0.00 
 245    3:40   0.00   61.3    31    8.6    71    15.0   872.9    0.00 
 245    3:50   0.00   64.8    30    6.1   295    12.3   872.9    0.00 
 245    4:00   0.00   64.9    30    2.9   241     7.3   873.1    0.00 
 245    4:10   0.00   64.8    27    4.3   152    10.9   873.1    0.00 
 245    4:20   0.00   67.2    24    6.6   266    14.4   873.1    0.00 
 245    4:30   0.00   67.1    23    4.3   262     9.9   873.1    0.00 
 245    4:40   0.00   65.1    28    3.8   115     9.3   873.2    0.00 
 245    4:50   0.00   63.0    30    3.2   120     8.0   873.3    0.00 
 245    5:00   0.00   62.2    29    4.4   248     8.8   873.2    0.00 
 245    5:10   0.00   61.3    30    2.6   281     6.8   873.3    0.00 
 245    5:20   0.00   58.0    35    3.2   269     7.2   873.4    0.00 
 245    5:30   0.00   58.4    32    3.0   165     6.9   873.4    0.00 
 245    5:40   0.00   61.5    30    4.5   244     9.3   873.4    0.00 
 245    5:50   0.00   60.8    32    2.7   190     5.6   873.5    0.00 
 245    6:00   0.00   62.3    32    4.4   206     7.5   873.6    0.00 
 245    6:10   0.04   63.3    28    2.6    75     7.2   873.8    0.00 
 245    6:20   0.02   65.4    28    2.0   110     3.9   873.8    0.00 
 245    6:30   0.19   66.5    28    2.3   268     6.1   873.9    0.00 
 245    6:40   0.14   69.0    27    4.3   278    11.2   874.0    0.00 
 245    6:50   0.06   69.9    26    5.9   261    11.6   874.1    0.00 
 245    7:00   0.00   70.2    28    2.0    94     4.9   874.2    0.00 
 245    7:10   0.00   70.2    29    1.7   122     4.0   874.2    0.00 
 245    7:20   0.00   69.9    28    3.4   244     9.6   874.1    0.00 
 245    7:30   0.00   69.6    29    4.8   266     9.2   874.1    0.00 
 245    7:40   0.00   68.5    36    4.2   179     8.3   874.0    0.00 
 245    7:50   0.10   70.1    36    2.1   211     4.2   874.0    0.00 
 245    8:00   0.34   70.6    39    3.2   177     7.6   874.0    0.00 
 245    8:10   0.40   69.5    37    4.0   163     9.1   874.0    0.00 
 245    8:20   0.45   70.9    30    4.9   134     8.6   874.0    0.00 
 245    8:30   0.53   71.0    30    4.0   108     7.1   874.0    0.00 
 245    8:40   0.41   72.4    28    3.3   110     6.8   873.9    0.00 
 245    8:50   0.48   74.1    29    2.1   120     6.1   873.9    0.00 
 245    9:00   0.60   73.7    30    5.5   136    15.6   873.8    0.00 
 245    9:10   0.64   73.5    25    5.9   119    11.5   873.8    0.00 
 245    9:20   0.65   74.5    29    6.6   196    17.8   873.7    0.00 
 245    9:30   0.72   75.2    26    7.8   236    18.0   873.7    0.00 
 245    9:40   0.74   74.3    29    6.6   260    13.9   873.7    0.00 
 245    9:50   0.76   74.7    28    8.8   250    17.2   873.6    0.00 
 245   10:00   0.66   74.6    25    7.6   265    15.2   873.5    0.00 
 245   10:10   0.75   75.3    29    7.5   207    13.9   873.4    0.00 
 245   10:20   0.71   75.3    31    7.5   237    11.2   873.4    0.00 

Return to Hualapai Flat graphs page.


Western Regional Climate Center,wrcc@dri.edu